createdAt,value
2023-02-07T00:01:21.311Z,12.15
2023-02-07T00:03:48.524Z,12.45
2023-02-07T00:06:26.017Z,13.50
2023-02-07T00:08:53.563Z,12.05
2023-02-07T00:11:21.379Z,11.50
2023-02-07T00:13:50.078Z,11.52
2023-02-07T00:16:16.610Z,11.32
2023-02-07T00:18:43.184Z,11.80
2023-02-07T00:21:13.256Z,10.73
2023-02-07T00:23:40.647Z,10.60
2023-02-07T00:26:09.100Z,11.90
2023-02-07T00:28:35.880Z,12.57
2023-02-07T00:31:24.221Z,11.30
2023-02-07T00:33:51.799Z,10.63
2023-02-07T00:36:21.605Z,10.43
2023-02-07T00:38:48.529Z,10.98
2023-02-07T00:41:18.272Z,10.80
2023-02-07T00:43:46.161Z,12.43
2023-02-07T00:46:12.878Z,10.32
2023-02-07T00:48:42.135Z,10.38
2023-02-07T00:51:09.518Z,11.32
2023-02-07T00:53:36.246Z,10.80
2023-02-07T00:56:03.190Z,11.13
2023-02-07T00:58:29.568Z,11.57
2023-02-07T01:00:56.324Z,11.02
2023-02-07T01:03:22.905Z,9.93
2023-02-07T01:05:49.548Z,10.40
2023-02-07T01:08:16.201Z,10.80
2023-02-07T01:10:44.320Z,10.95
2023-02-07T01:13:12.301Z,9.90
2023-02-07T01:15:40.967Z,10.40
2023-02-07T01:18:08.554Z,10.65
2023-02-07T01:20:35.801Z,10.73
2023-02-07T01:23:03.264Z,10.00
2023-02-07T01:25:29.872Z,11.00
2023-02-07T01:27:56.296Z,10.93
2023-02-07T01:30:22.803Z,10.73
2023-02-07T01:32:49.655Z,11.02
2023-02-07T01:35:16.246Z,10.88
2023-02-07T01:37:42.698Z,11.10
2023-02-07T01:40:10.877Z,12.23
2023-02-07T01:42:37.256Z,10.32
2023-02-07T01:45:24.878Z,10.90
2023-02-07T01:47:53.800Z,9.70
2023-02-07T01:50:21.695Z,9.98
2023-02-07T01:52:48.636Z,9.48
2023-02-07T01:55:29.504Z,9.98
2023-02-07T01:57:58.933Z,12.05
2023-02-07T02:00:26.205Z,11.77
2023-02-07T02:02:52.796Z,12.32
2023-02-07T02:05:19.248Z,13.25
2023-02-07T02:07:45.728Z,12.18
2023-02-07T02:10:16.923Z,11.73
2023-02-07T02:12:55.589Z,11.90
2023-02-07T02:15:37.878Z,13.10
2023-02-07T02:18:22.846Z,12.48
2023-02-07T02:21:09.238Z,13.30
2023-02-07T02:23:55.666Z,12.90
2023-02-07T02:26:25.196Z,13.80
2023-02-07T02:29:10.258Z,13.65
2023-02-07T02:31:58.371Z,13.13
2023-02-07T02:35:02.465Z,13.75
2023-02-07T02:37:32.971Z,14.02
2023-02-07T02:40:09.657Z,13.65
2023-02-07T02:42:52.498Z,13.95
2023-02-07T02:45:27.889Z,14.10
2023-02-07T02:47:55.696Z,13.15
2023-02-07T02:50:27.723Z,13.68
2023-02-07T02:52:54.316Z,13.13
2023-02-07T02:55:36.569Z,12.85
2023-02-07T02:58:14.514Z,12.85
2023-02-07T03:01:19.078Z,12.90
2023-02-07T03:04:03.666Z,12.90
2023-02-07T03:06:36.141Z,12.52
2023-02-07T03:09:17.946Z,11.77
2023-02-07T03:12:30.739Z,11.63
2023-02-07T03:15:15.626Z,11.52
2023-02-07T03:17:53.710Z,11.77
2023-02-07T03:20:26.630Z,11.55
2023-02-07T03:22:53.992Z,12.38
2023-02-07T03:25:22.128Z,12.07
2023-02-07T03:27:49.698Z,12.50
2023-02-07T03:30:18.611Z,13.27
2023-02-07T03:32:50.199Z,12.82
2023-02-07T03:35:29.211Z,12.80
2023-02-07T03:38:20.023Z,13.90
2023-02-07T03:40:50.203Z,13.30
2023-02-07T03:43:22.333Z,13.88
2023-02-07T03:45:48.712Z,13.40
2023-02-07T03:48:15.132Z,13.27
2023-02-07T03:50:41.589Z,13.32
2023-02-07T03:53:08.688Z,13.50
2023-02-07T03:55:35.808Z,13.18
2023-02-07T03:58:02.429Z,13.27
2023-02-07T04:00:28.859Z,12.93
2023-02-07T04:02:55.314Z,12.75
2023-02-07T04:05:21.813Z,12.63
2023-02-07T04:07:48.222Z,12.65
2023-02-07T04:10:14.830Z,11.80
2023-02-07T04:12:41.257Z,12.00
2023-02-07T04:15:08.389Z,12.07
2023-02-07T04:17:34.821Z,12.38
2023-02-07T04:20:01.696Z,13.25
2023-02-07T04:22:29.250Z,12.90
2023-02-07T04:24:55.784Z,12.43
2023-02-07T04:27:22.192Z,11.18
2023-02-07T04:29:48.668Z,12.50
2023-02-07T04:32:15.059Z,11.52
2023-02-07T04:34:41.491Z,11.98
2023-02-07T04:37:07.889Z,11.68
2023-02-07T04:39:34.555Z,11.40
2023-02-07T04:42:01.018Z,11.90
2023-02-07T04:44:28.068Z,12.02
2023-02-07T04:46:54.450Z,12.10
2023-02-07T04:49:20.990Z,12.73
2023-02-07T04:51:47.395Z,12.60
2023-02-07T04:54:14.039Z,11.95
2023-02-07T04:56:40.472Z,12.90
2023-02-07T04:59:06.933Z,12.68
2023-02-07T05:01:33.447Z,13.23
2023-02-07T05:03:59.846Z,12.65
2023-02-07T05:06:26.223Z,11.95
2023-02-07T05:08:52.656Z,12.90
2023-02-07T05:11:19.586Z,11.90
2023-02-07T05:13:46.099Z,13.60
2023-02-07T05:16:12.515Z,12.13
2023-02-07T05:18:38.997Z,11.32
2023-02-07T05:21:05.702Z,11.82
2023-02-07T05:23:32.236Z,12.48
2023-02-07T05:25:58.660Z,12.60
2023-02-07T05:28:25.231Z,12.00
2023-02-07T05:30:56.237Z,12.45
2023-02-07T05:33:22.685Z,12.07
2023-02-07T05:35:49.136Z,13.00
2023-02-07T05:38:17.435Z,12.57
2023-02-07T05:40:44.231Z,13.38
2023-02-07T05:43:11.768Z,12.02
2023-02-07T05:45:39.124Z,13.07
2023-02-07T05:48:06.209Z,12.30
2023-02-07T05:50:32.953Z,13.32
2023-02-07T05:52:59.433Z,12.50
2023-02-07T05:55:25.905Z,12.48
2023-02-07T05:57:52.283Z,11.70
2023-02-07T06:00:19.415Z,12.13
2023-02-07T06:02:46.164Z,12.05
2023-02-07T06:05:15.322Z,12.73
2023-02-07T06:07:41.869Z,11.82
2023-02-07T06:10:08.825Z,12.20
2023-02-07T06:12:35.281Z,12.95
2023-02-07T06:15:01.915Z,13.50
2023-02-07T06:17:28.386Z,12.48
2023-02-07T06:19:56.228Z,12.25
2023-02-07T06:22:22.677Z,12.25
2023-02-07T06:24:49.218Z,11.75
2023-02-07T06:27:15.735Z,11.45
2023-02-07T06:29:42.166Z,13.40
2023-02-07T06:32:08.539Z,13.68
2023-02-07T06:34:34.909Z,15.43
2023-02-07T06:37:01.359Z,16.45
2023-02-07T06:39:27.768Z,16.98
2023-02-07T06:41:54.172Z,19.23
2023-02-07T06:44:20.544Z,15.85
2023-02-07T06:46:47.056Z,15.18
2023-02-07T06:49:13.552Z,14.32
2023-02-07T06:51:39.955Z,13.98
2023-02-07T06:54:09.874Z,13.55
2023-02-07T06:56:37.386Z,14.75
2023-02-07T06:59:03.927Z,14.05
2023-02-07T07:01:30.749Z,13.70
2023-02-07T07:03:57.310Z,13.27
2023-02-07T07:06:23.765Z,12.98
2023-02-07T07:08:51.684Z,13.35
2023-02-07T07:11:18.854Z,12.40
2023-02-07T07:13:45.775Z,12.98
2023-02-07T07:16:12.216Z,14.07
2023-02-07T07:18:39.203Z,13.30
2023-02-07T07:21:06.426Z,14.82
2023-02-07T07:23:33.089Z,14.55
2023-02-07T07:25:59.650Z,15.27
2023-02-07T07:28:26.170Z,15.73
2023-02-07T07:30:52.760Z,17.63
2023-02-07T07:33:19.295Z,16.67
2023-02-07T07:35:45.726Z,15.43
2023-02-07T07:38:12.761Z,15.38
2023-02-07T07:40:39.714Z,15.13
2023-02-07T07:43:06.406Z,15.00
2023-02-07T07:45:32.855Z,14.85
2023-02-07T07:47:59.336Z,13.88
2023-02-07T07:50:25.798Z,15.45
2023-02-07T07:52:52.296Z,17.63
2023-02-07T07:55:18.924Z,18.35
2023-02-07T07:57:45.336Z,18.58
2023-02-07T08:00:12.701Z,17.45
2023-02-07T08:02:39.089Z,16.30
2023-02-07T08:05:05.961Z,15.32
2023-02-07T08:07:32.446Z,14.75
2023-02-07T08:09:59.055Z,14.48
2023-02-07T08:12:25.614Z,14.32
2023-02-07T08:14:52.061Z,14.15
2023-02-07T08:17:18.985Z,14.95
2023-02-07T08:19:45.402Z,14.18
2023-02-07T08:22:14.378Z,14.70
2023-02-07T08:24:41.926Z,14.60
2023-02-07T08:27:08.667Z,13.80
2023-02-07T08:29:35.146Z,15.32
2023-02-07T08:32:01.720Z,14.57
2023-02-07T08:34:29.036Z,14.35
2023-02-07T08:36:55.541Z,14.23
2023-02-07T08:39:21.986Z,14.77
2023-02-07T08:41:48.464Z,14.73
2023-02-07T08:44:14.953Z,14.18
2023-02-07T08:46:41.390Z,14.80
2023-02-07T08:49:07.856Z,14.57
2023-02-07T08:51:34.324Z,14.50
2023-02-07T08:54:00.759Z,14.27
2023-02-07T08:56:27.323Z,14.35
2023-02-07T08:58:53.769Z,14.90
2023-02-07T09:01:20.242Z,13.80
2023-02-07T09:03:46.745Z,13.45
2023-02-07T09:06:13.571Z,13.73
2023-02-07T09:08:40.012Z,14.13
2023-02-07T09:11:09.636Z,13.05
2023-02-07T09:13:37.016Z,12.85
2023-02-07T09:16:03.501Z,12.75
2023-02-07T09:18:31.044Z,12.57
2023-02-07T09:20:57.578Z,13.88
2023-02-07T09:23:24.092Z,13.35
2023-02-07T09:25:53.808Z,13.05
2023-02-07T09:28:24.665Z,12.60
2023-02-07T09:30:51.602Z,13.40
2023-02-07T09:33:18.335Z,13.27
2023-02-07T09:35:46.511Z,12.55
2023-02-07T09:38:15.503Z,12.75
2023-02-07T09:40:43.139Z,12.60
2023-02-07T09:43:15.889Z,12.32
2023-02-07T09:45:47.466Z,11.07
2023-02-07T09:48:19.818Z,11.25
2023-02-07T09:50:52.550Z,12.15
2023-02-07T09:53:29.917Z,11.68
2023-02-07T09:56:00.790Z,11.98
2023-02-07T09:58:37.333Z,11.50
2023-02-07T10:01:24.583Z,11.45
2023-02-07T10:04:18.656Z,11.18
2023-02-07T10:06:48.390Z,11.60
2023-02-07T10:09:18.767Z,11.07
2023-02-07T10:14:56.435Z,11.70
2023-02-07T10:17:35.777Z,11.93
2023-02-07T10:20:31.994Z,10.95
2023-02-07T10:23:10.851Z,11.55
2023-02-07T10:25:57.782Z,12.95
2023-02-07T10:28:50.595Z,11.10
2023-02-07T10:31:19.236Z,10.18
2023-02-07T10:33:54.413Z,11.15
2023-02-07T10:36:23.453Z,10.63
2023-02-07T10:39:25.522Z,10.85
2023-02-07T10:41:57.465Z,12.60
2023-02-07T10:44:25.942Z,10.77
2023-02-07T10:47:02.669Z,11.77
2023-02-07T10:49:32.371Z,10.88
2023-02-07T10:52:03.127Z,11.63
2023-02-07T10:54:29.714Z,10.85
2023-02-07T10:57:02.241Z,10.43
2023-02-07T10:59:37.727Z,10.55
2023-02-07T11:02:31.712Z,10.45
2023-02-07T11:05:00.385Z,11.52
2023-02-07T11:07:29.362Z,11.75
2023-02-07T11:12:54.119Z,10.73
2023-02-07T11:15:26.192Z,11.32
2023-02-07T11:17:56.544Z,10.77
2023-02-07T11:22:58.231Z,12.05
2023-02-07T11:25:35.185Z,12.18
2023-02-07T11:28:02.122Z,11.02
2023-02-07T11:30:29.831Z,12.68
2023-02-07T11:33:02.772Z,11.45
2023-02-07T11:35:29.342Z,11.15
2023-02-07T11:38:06.044Z,10.82
2023-02-07T11:40:41.622Z,10.68
2023-02-07T11:43:18.142Z,11.18
2023-02-07T11:45:51.383Z,11.82
2023-02-07T11:48:20.955Z,10.70
2023-02-07T11:50:52.771Z,10.80
2023-02-07T11:53:30.887Z,11.25
2023-02-07T11:55:58.169Z,11.88
2023-02-07T11:58:34.972Z,11.38
2023-02-07T12:01:04.020Z,11.00
2023-02-07T12:03:56.161Z,11.02
2023-02-07T12:06:29.069Z,11.20
2023-02-07T12:08:55.940Z,11.45
2023-02-07T12:11:31.163Z,12.27
2023-02-07T12:14:18.713Z,12.07
2023-02-07T12:16:52.275Z,11.73
2023-02-07T12:19:27.934Z,12.07
2023-02-07T12:22:13.504Z,11.88
2023-02-07T12:24:48.555Z,12.07
2023-02-07T12:27:18.146Z,11.45
2023-02-07T12:30:12.368Z,11.73
2023-02-07T12:32:57.743Z,12.45
2023-02-07T12:35:39.235Z,11.70
2023-02-07T12:38:24.235Z,11.98
2023-02-07T12:41:15.039Z,12.30
2023-02-07T12:44:06.204Z,12.25
2023-02-07T12:46:42.801Z,13.57
2023-02-07T12:49:47.764Z,13.63
2023-02-07T12:52:29.064Z,13.25
2023-02-07T12:55:51.498Z,14.57
2023-02-07T12:58:34.253Z,14.07
2023-02-07T13:01:22.301Z,13.43
2023-02-07T13:04:02.089Z,13.88
2023-02-07T13:07:05.771Z,13.65
2023-02-07T13:09:42.118Z,14.20
2023-02-07T13:12:25.524Z,14.60
2023-02-07T13:15:07.301Z,14.65
2023-02-07T13:18:09.495Z,14.50
2023-02-07T13:21:09.383Z,13.25
2023-02-07T13:23:41.488Z,13.75
2023-02-07T13:26:14.917Z,14.23
2023-02-07T13:28:50.443Z,14.23
2023-02-07T13:31:20.758Z,14.30
2023-02-07T13:36:36.143Z,13.27
2023-02-07T13:39:15.083Z,14.10
2023-02-07T13:41:59.852Z,14.32
2023-02-07T13:44:47.787Z,13.88
2023-02-07T13:47:32.541Z,15.32
2023-02-07T13:50:25.568Z,13.50
2023-02-07T13:53:18.147Z,13.57
2023-02-07T13:55:45.164Z,15.15
2023-02-07T13:58:54.332Z,14.85
2023-02-07T14:01:31.553Z,16.35
2023-02-07T14:04:12.579Z,15.10
2023-02-07T14:06:54.261Z,15.98
2023-02-07T14:09:44.779Z,15.27
2023-02-07T14:15:30.656Z,14.30
2023-02-07T14:17:59.127Z,14.65
2023-02-07T14:20:34.730Z,14.07
2023-02-07T14:23:16.807Z,14.13
2023-02-07T14:25:44.772Z,14.30
2023-02-07T14:28:11.316Z,13.63
2023-02-07T14:30:55.256Z,13.13
2023-02-07T14:33:39.233Z,13.73
2023-02-07T14:36:14.764Z,12.90
2023-02-07T14:39:05.070Z,13.27
2023-02-07T14:41:35.581Z,13.82
2023-02-07T14:44:10.164Z,13.27
2023-02-07T14:46:53.194Z,14.20
2023-02-07T14:49:36.766Z,15.10
2023-02-07T14:52:21.227Z,15.90
2023-02-07T14:54:52.944Z,14.70
2023-02-07T14:57:37.887Z,14.73
2023-02-07T15:00:28.665Z,14.98
2023-02-07T15:02:58.483Z,15.00
2023-02-07T15:05:35.207Z,14.32
2023-02-07T15:08:16.515Z,15.25
2023-02-07T15:10:52.613Z,15.73
2023-02-07T15:13:37.401Z,15.48
2023-02-07T15:16:12.814Z,16.85
2023-02-07T15:18:42.990Z,17.30
2023-02-07T15:21:29.684Z,16.67
2023-02-07T15:24:04.980Z,16.80
2023-02-07T15:26:32.846Z,16.73
2023-02-07T15:29:02.120Z,17.40
2023-02-07T15:31:29.607Z,17.67
2023-02-07T15:34:01.507Z,19.15
2023-02-07T15:36:39.155Z,17.40
2023-02-07T15:39:13.239Z,16.27
2023-02-07T15:41:40.017Z,18.30
2023-02-07T15:44:08.764Z,17.77
2023-02-07T15:46:50.403Z,17.75
2023-02-07T15:49:29.452Z,18.38
2023-02-07T15:52:03.503Z,18.15
2023-02-07T15:54:34.769Z,17.75
2023-02-07T15:57:01.503Z,18.20
2023-02-07T15:59:30.858Z,18.30
2023-02-07T16:02:00.793Z,18.75
2023-02-07T16:04:30.282Z,18.80
2023-02-07T16:07:07.674Z,19.38
2023-02-07T16:09:43.294Z,19.55
2023-02-07T16:12:41.666Z,19.63
2023-02-07T16:15:24.761Z,19.38
2023-02-07T16:17:51.221Z,20.27
2023-02-07T16:20:18.429Z,21.02
2023-02-07T16:22:46.526Z,20.63
2023-02-07T16:25:17.166Z,21.15
2023-02-07T16:27:45.013Z,21.50
2023-02-07T16:30:33.727Z,21.33
2023-02-07T16:33:07.175Z,19.90
2023-02-07T16:35:34.092Z,19.13
2023-02-07T16:38:00.638Z,18.23
2023-02-07T16:40:27.223Z,18.23
2023-02-07T16:42:55.274Z,17.48
2023-02-07T16:45:29.620Z,16.73
2023-02-07T16:47:58.925Z,16.92
2023-02-07T16:50:27.742Z,16.92
2023-02-07T16:52:59.430Z,17.08
2023-02-07T16:55:27.983Z,18.08
2023-02-07T16:57:56.332Z,17.40
2023-02-07T17:00:24.799Z,18.15
2023-02-07T17:02:52.752Z,17.42
2023-02-07T17:05:21.280Z,18.23
2023-02-07T17:07:49.857Z,16.48
2023-02-07T17:10:26.889Z,17.02
2023-02-07T17:12:54.127Z,17.30
2023-02-07T17:15:21.303Z,17.55
2023-02-07T17:17:48.035Z,17.38
2023-02-07T17:20:18.004Z,17.95
2023-02-07T17:22:44.460Z,17.55
2023-02-07T17:25:10.939Z,17.55
2023-02-07T17:27:37.368Z,16.88
2023-02-07T17:30:11.407Z,17.42
2023-02-07T17:32:37.855Z,17.10
2023-02-07T17:35:04.395Z,18.20
2023-02-07T17:37:30.783Z,18.80
2023-02-07T17:39:57.242Z,19.95
2023-02-07T17:42:23.733Z,18.75
2023-02-07T17:44:50.136Z,19.08
2023-02-07T17:47:16.566Z,18.05
2023-02-07T17:49:42.979Z,18.48
2023-02-07T17:52:13.434Z,18.90
2023-02-07T17:54:42.893Z,17.25
2023-02-07T17:57:12.607Z,16.93
2023-02-07T17:59:39.085Z,17.65
2023-02-07T18:02:05.868Z,16.48
2023-02-07T18:04:32.303Z,15.57
2023-02-07T18:06:59.631Z,16.40
2023-02-07T18:09:26.353Z,16.85
2023-02-07T18:11:52.864Z,15.65
2023-02-07T18:14:19.329Z,16.42
2023-02-07T18:16:46.067Z,17.25
2023-02-07T18:19:15.958Z,16.52
2023-02-07T18:21:42.747Z,16.08
2023-02-07T18:24:09.232Z,16.77
2023-02-07T18:26:35.662Z,16.40
2023-02-07T18:29:02.092Z,16.83
2023-02-07T18:31:28.717Z,17.88
2023-02-07T18:33:55.289Z,17.35
2023-02-07T18:36:24.068Z,17.80
2023-02-07T18:38:50.603Z,17.50
2023-02-07T18:41:21.859Z,16.77
2023-02-07T18:43:49.450Z,16.85
2023-02-07T18:46:19.156Z,16.70
2023-02-07T18:48:49.596Z,18.65
2023-02-07T18:53:43.116Z,17.83
2023-02-07T18:56:15.672Z,18.02
2023-02-07T18:58:45.644Z,19.05
2023-02-07T19:01:15.199Z,18.63
2023-02-07T19:03:41.652Z,18.30
2023-02-07T19:06:08.420Z,18.25
2023-02-07T19:08:35.330Z,20.33
2023-02-07T19:11:05.344Z,21.10
2023-02-07T19:13:33.071Z,22.15
2023-02-07T19:16:08.447Z,24.85
2023-02-07T19:18:34.984Z,23.17
2023-02-07T19:21:06.667Z,23.50
2023-02-07T19:23:33.980Z,21.02
2023-02-07T19:26:00.757Z,22.77
2023-02-07T19:28:27.373Z,22.48
2023-02-07T19:30:53.878Z,22.98
2023-02-07T19:33:20.568Z,21.30
2023-02-07T19:35:46.943Z,21.80
2023-02-07T19:38:13.351Z,23.33
2023-02-07T19:40:40.143Z,28.50
2023-02-07T19:43:06.731Z,29.77
2023-02-07T19:45:33.528Z,29.00
2023-02-07T19:48:00.025Z,26.52
2023-02-07T19:50:26.696Z,27.25
2023-02-07T19:52:53.912Z,27.63
2023-02-07T19:55:20.327Z,27.00
2023-02-07T19:57:46.762Z,26.30
2023-02-07T20:00:13.529Z,26.02
2023-02-07T20:02:40.017Z,23.90
2023-02-07T20:05:06.520Z,24.65
2023-02-07T20:07:32.965Z,23.42
2023-02-07T20:10:00.872Z,23.73
2023-02-07T20:12:27.257Z,23.63
2023-02-07T20:14:53.706Z,25.00
2023-02-07T20:17:20.142Z,24.98
2023-02-07T20:19:46.565Z,27.50
2023-02-07T20:22:13.563Z,29.13
2023-02-07T20:24:40.079Z,27.35
2023-02-07T20:27:06.578Z,26.33
2023-02-07T20:29:33.092Z,27.73
2023-02-07T20:31:59.576Z,26.30
2023-02-07T20:34:26.019Z,26.63
2023-02-07T20:36:52.507Z,26.23
2023-02-07T20:39:21.274Z,25.67
2023-02-07T20:41:49.879Z,25.65
2023-02-07T20:44:23.086Z,25.55
2023-02-07T20:46:50.864Z,24.35
2023-02-07T20:49:25.521Z,25.75
2023-02-07T20:51:53.663Z,25.63
2023-02-07T20:54:25.572Z,25.65
2023-02-07T20:56:53.139Z,23.63
2023-02-07T20:59:38.625Z,23.98
2023-02-07T21:02:05.315Z,24.13
2023-02-07T21:04:31.722Z,25.25
2023-02-07T21:06:58.191Z,24.55
2023-02-07T21:09:24.914Z,23.27
2023-02-07T21:11:53.003Z,23.95
2023-02-07T21:14:25.603Z,25.33
2023-02-07T21:16:53.686Z,24.50
2023-02-07T21:19:20.182Z,24.17
2023-02-07T21:21:47.210Z,26.23
2023-02-07T21:24:17.696Z,25.05
2023-02-07T21:26:46.853Z,25.70
2023-02-07T21:29:13.347Z,24.35
2023-02-07T21:31:39.900Z,24.02
2023-02-07T21:34:06.437Z,25.70
2023-02-07T21:36:37.514Z,25.15
2023-02-07T21:39:08.324Z,24.13
2023-02-07T21:41:36.250Z,23.63
2023-02-07T21:44:03.061Z,24.38
2023-02-07T21:46:32.730Z,25.63
2023-02-07T21:49:03.245Z,25.10
2023-02-07T21:51:31.947Z,25.13
2023-02-07T21:53:59.327Z,25.88
2023-02-07T21:56:28.909Z,24.92
2023-02-07T21:58:57.406Z,24.35
2023-02-07T22:01:24.782Z,26.10
2023-02-07T22:03:54.018Z,26.45
2023-02-07T22:06:21.746Z,25.50
2023-02-07T22:08:56.998Z,27.00
2023-02-07T22:11:25.243Z,27.85
2023-02-07T22:13:52.659Z,25.30
2023-02-07T22:16:21.911Z,27.52
2023-02-07T22:18:48.641Z,25.17
2023-02-07T22:21:24.943Z,24.10
2023-02-07T22:23:52.257Z,24.30
2023-02-07T22:26:18.914Z,25.27
2023-02-07T22:28:46.126Z,26.00
2023-02-07T22:31:15.454Z,25.42
2023-02-07T22:33:42.518Z,24.60
2023-02-07T22:36:14.306Z,25.58
2023-02-07T22:38:41.558Z,25.17
2023-02-07T22:41:08.579Z,25.33
2023-02-07T22:43:35.613Z,24.52
2023-02-07T22:46:04.122Z,23.50
2023-02-07T22:48:31.911Z,24.33
2023-02-07T22:50:59.993Z,24.55
2023-02-07T22:53:27.253Z,23.50
2023-02-07T22:55:53.662Z,25.67
2023-02-07T22:58:20.226Z,25.90
2023-02-07T23:00:46.731Z,33.08
2023-02-07T23:03:13.122Z,29.98
2023-02-07T23:05:39.816Z,28.48
2023-02-07T23:08:06.784Z,27.08
2023-02-07T23:10:33.342Z,26.90
2023-02-07T23:13:00.300Z,26.98
2023-02-07T23:15:27.091Z,27.30
2023-02-07T23:17:53.636Z,27.27
2023-02-07T23:20:20.163Z,24.55
2023-02-07T23:22:46.582Z,24.70
2023-02-07T23:25:15.900Z,25.73
2023-02-07T23:27:45.918Z,24.70
2023-02-07T23:30:14.422Z,25.42
2023-02-07T23:32:41.478Z,25.35
2023-02-07T23:35:08.580Z,27.17
2023-02-07T23:37:35.399Z,25.63
2023-02-07T23:40:01.885Z,26.05
2023-02-07T23:42:28.299Z,25.63
2023-02-07T23:44:54.719Z,27.63
2023-02-07T23:47:21.264Z,27.80
2023-02-07T23:49:47.648Z,26.50
2023-02-07T23:52:14.125Z,26.80
2023-02-07T23:54:40.606Z,26.63
2023-02-07T23:57:07.111Z,26.95
2023-02-07T23:59:34.805Z,28.23
